sensor_id;sensor_type;location;lat;lon;timestamp;P1;durP1;ratioP1;P2;durP2;ratioP2
1134;SDS011;556;53.550;10.048;2022-09-28T00:00:06;7.37;;;2.63;;
1134;SDS011;556;53.550;10.048;2022-09-28T00:02:38;2.13;;;1.90;;
1134;SDS011;556;53.550;10.048;2022-09-28T00:05:06;8.30;;;1.57;;
1134;SDS011;556;53.550;10.048;2022-09-28T00:07:35;1.83;;;1.73;;
1134;SDS011;556;53.550;10.048;2022-09-28T00:10:04;2.90;;;1.90;;
1134;SDS011;556;53.550;10.048;2022-09-28T00:12:32;2.50;;;1.70;;
1134;SDS011;556;53.550;10.048;2022-09-28T00:14:59;5.73;;;2.20;;
1134;SDS011;556;53.550;10.048;2022-09-28T00:17:27;2.80;;;2.20;;
1134;SDS011;556;53.550;10.048;2022-09-28T00:19:55;15.73;;;3.57;;
1134;SDS011;556;53.550;10.048;2022-09-28T00:22:23;2.33;;;2.13;;
1134;SDS011;556;53.550;10.048;2022-09-28T00:24:53;3.37;;;3.07;;
1134;SDS011;556;53.550;10.048;2022-09-28T00:27:22;1.83;;;1.70;;
1134;SDS011;556;53.550;10.048;2022-09-28T00:29:50;2.17;;;2.07;;
1134;SDS011;556;53.550;10.048;2022-09-28T00:32:19;1.77;;;1.67;;
1134;SDS011;556;53.550;10.048;2022-09-28T00:34:49;2.53;;;2.33;;
1134;SDS011;556;53.550;10.048;2022-09-28T00:37:17;2.53;;;1.67;;
1134;SDS011;556;53.550;10.048;2022-09-28T00:39:46;3.30;;;3.07;;
1134;SDS011;556;53.550;10.048;2022-09-28T00:42:15;1.83;;;1.73;;
1134;SDS011;556;53.550;10.048;2022-09-28T00:44:48;1.80;;;1.70;;
1134;SDS011;556;53.550;10.048;2022-09-28T00:47:32;2.17;;;2.00;;
1134;SDS011;556;53.550;10.048;2022-09-28T00:50:12;2.30;;;2.20;;
1134;SDS011;556;53.550;10.048;2022-09-28T00:52:47;1.97;;;1.87;;
1134;SDS011;556;53.550;10.048;2022-09-28T00:55:20;4.13;;;2.80;;
1134;SDS011;556;53.550;10.048;2022-09-28T00:57:49;2.13;;;2.03;;
1134;SDS011;556;53.550;10.048;2022-09-28T01:00:22;1.47;;;1.43;;
1134;SDS011;556;53.550;10.048;2022-09-28T01:02:50;3.03;;;2.07;;
1134;SDS011;556;53.550;10.048;2022-09-28T01:05:18;1.67;;;1.57;;
1134;SDS011;556;53.550;10.048;2022-09-28T01:07:49;2.43;;;2.00;;
1134;SDS011;556;53.550;10.048;2022-09-28T01:10:17;2.83;;;2.60;;
1134;SDS011;556;53.550;10.048;2022-09-28T01:12:45;2.80;;;2.60;;
1134;SDS011;556;53.550;10.048;2022-09-28T01:15:12;2.10;;;2.00;;
1134;SDS011;556;53.550;10.048;2022-09-28T01:17:49;2.77;;;2.13;;
1134;SDS011;556;53.550;10.048;2022-09-28T01:20:43;5.03;;;3.70;;
1134;SDS011;556;53.550;10.048;2022-09-28T01:23:31;3.03;;;2.70;;
1134;SDS011;556;53.550;10.048;2022-09-28T01:26:29;3.50;;;1.60;;
1134;SDS011;556;53.550;10.048;2022-09-28T01:29:21;1.90;;;1.80;;
1134;SDS011;556;53.550;10.048;2022-09-28T01:31:59;3.63;;;2.80;;
1134;SDS011;556;53.550;10.048;2022-09-28T01:34:33;5.90;;;2.70;;
1134;SDS011;556;53.550;10.048;2022-09-28T01:37:08;3.83;;;2.83;;
1134;SDS011;556;53.550;10.048;2022-09-28T01:39:38;2.83;;;2.73;;
1134;SDS011;556;53.550;10.048;2022-09-28T01:42:12;2.77;;;2.53;;
1134;SDS011;556;53.550;10.048;2022-09-28T01:44:44;3.80;;;3.50;;
1134;SDS011;556;53.550;10.048;2022-09-28T01:47:16;1.80;;;1.70;;
1134;SDS011;556;53.550;10.048;2022-09-28T01:49:47;1.90;;;1.80;;
1134;SDS011;556;53.550;10.048;2022-09-28T01:52:20;1.57;;;1.47;;
1134;SDS011;556;53.550;10.048;2022-09-28T01:54:53;2.10;;;2.00;;
1134;SDS011;556;53.550;10.048;2022-09-28T01:57:27;2.90;;;2.57;;
1134;SDS011;556;53.550;10.048;2022-09-28T02:00:17;3.50;;;3.20;;
1134;SDS011;556;53.550;10.048;2022-09-28T02:02:50;2.47;;;2.10;;
1134;SDS011;556;53.550;10.048;2022-09-28T02:05:32;3.07;;;2.77;;
1134;SDS011;556;53.550;10.048;2022-09-28T02:08:02;2.83;;;2.63;;
1134;SDS011;556;53.550;10.048;2022-09-28T02:10:34;2.50;;;2.30;;
1134;SDS011;556;53.550;10.048;2022-09-28T02:13:07;4.30;;;2.20;;
1134;SDS011;556;53.550;10.048;2022-09-28T02:15:42;2.70;;;2.47;;
1134;SDS011;556;53.550;10.048;2022-09-28T02:18:14;2.33;;;2.10;;
1134;SDS011;556;53.550;10.048;2022-09-28T02:20:44;4.10;;;3.03;;
1134;SDS011;556;53.550;10.048;2022-09-28T02:23:17;2.10;;;2.00;;
1134;SDS011;556;53.550;10.048;2022-09-28T02:25:49;3.80;;;3.07;;
1134;SDS011;556;53.550;10.048;2022-09-28T02:28:20;3.67;;;3.17;;
1134;SDS011;556;53.550;10.048;2022-09-28T02:30:50;2.43;;;2.10;;
1134;SDS011;556;53.550;10.048;2022-09-28T02:33:18;2.53;;;2.33;;
1134;SDS011;556;53.550;10.048;2022-09-28T02:35:49;1.77;;;1.60;;
1134;SDS011;556;53.550;10.048;2022-09-28T02:38:19;5.30;;;5.00;;
1134;SDS011;556;53.550;10.048;2022-09-28T02:40:48;4.97;;;4.20;;
1134;SDS011;556;53.550;10.048;2022-09-28T02:43:28;3.10;;;2.60;;
1134;SDS011;556;53.550;10.048;2022-09-28T02:46:08;3.30;;;3.10;;
1134;SDS011;556;53.550;10.048;2022-09-28T02:48:59;9.33;;;3.47;;
1134;SDS011;556;53.550;10.048;2022-09-28T02:51:36;1.70;;;1.60;;
1134;SDS011;556;53.550;10.048;2022-09-28T02:54:25;2.27;;;2.07;;
1134;SDS011;556;53.550;10.048;2022-09-28T02:57:09;5.30;;;3.57;;
1134;SDS011;556;53.550;10.048;2022-09-28T02:59:45;3.77;;;2.97;;
1134;SDS011;556;53.550;10.048;2022-09-28T03:02:22;4.30;;;3.10;;
1134;SDS011;556;53.550;10.048;2022-09-28T03:04:59;2.17;;;2.07;;
1134;SDS011;556;53.550;10.048;2022-09-28T03:07:40;2.53;;;2.43;;
1134;SDS011;556;53.550;10.048;2022-09-28T03:10:16;5.37;;;3.07;;
1134;SDS011;556;53.550;10.048;2022-09-28T03:12:49;2.07;;;1.87;;
1134;SDS011;556;53.550;10.048;2022-09-28T03:15:19;3.57;;;3.23;;
1134;SDS011;556;53.550;10.048;2022-09-28T03:17:49;3.33;;;3.13;;
1134;SDS011;556;53.550;10.048;2022-09-28T03:20:17;1.53;;;1.47;;
1134;SDS011;556;53.550;10.048;2022-09-28T03:22:44;5.60;;;3.97;;
1134;SDS011;556;53.550;10.048;2022-09-28T03:25:12;3.60;;;2.37;;
1134;SDS011;556;53.550;10.048;2022-09-28T03:27:40;3.77;;;3.00;;
1134;SDS011;556;53.550;10.048;2022-09-28T03:30:08;3.40;;;2.97;;
1134;SDS011;556;53.550;10.048;2022-09-28T03:32:39;2.50;;;2.23;;
1134;SDS011;556;53.550;10.048;2022-09-28T03:35:09;3.27;;;2.30;;
1134;SDS011;556;53.550;10.048;2022-09-28T03:37:36;2.03;;;1.83;;
1134;SDS011;556;53.550;10.048;2022-09-28T03:40:04;3.57;;;3.23;;
1134;SDS011;556;53.550;10.048;2022-09-28T03:42:34;9.40;;;5.73;;
1134;SDS011;556;53.550;10.048;2022-09-28T03:45:02;8.00;;;4.57;;
1134;SDS011;556;53.550;10.048;2022-09-28T03:47:30;5.53;;;3.53;;
1134;SDS011;556;53.550;10.048;2022-09-28T03:49:57;7.00;;;5.23;;
1134;SDS011;556;53.550;10.048;2022-09-28T03:52:28;6.50;;;4.53;;
1134;SDS011;556;53.550;10.048;2022-09-28T03:54:55;7.27;;;5.40;;
1134;SDS011;556;53.550;10.048;2022-09-28T03:57:22;10.33;;;7.23;;
1134;SDS011;556;53.550;10.048;2022-09-28T03:59:49;9.00;;;6.70;;
1134;SDS011;556;53.550;10.048;2022-09-28T04:02:16;8.60;;;7.90;;
1134;SDS011;556;53.550;10.048;2022-09-28T04:04:43;12.60;;;6.70;;
1134;SDS011;556;53.550;10.048;2022-09-28T04:07:11;10.00;;;5.13;;
1134;SDS011;556;53.550;10.048;2022-09-28T04:09:39;8.93;;;6.70;;
1134;SDS011;556;53.550;10.048;2022-09-28T04:12:06;9.63;;;6.60;;
1134;SDS011;556;53.550;10.048;2022-09-28T04:14:34;9.40;;;8.10;;
1134;SDS011;556;53.550;10.048;2022-09-28T04:17:02;5.83;;;4.97;;
1134;SDS011;556;53.550;10.048;2022-09-28T04:19:30;9.63;;;7.07;;
1134;SDS011;556;53.550;10.048;2022-09-28T04:22:06;8.00;;;5.50;;
1134;SDS011;556;53.550;10.048;2022-09-28T04:24:34;11.90;;;5.40;;
1134;SDS011;556;53.550;10.048;2022-09-28T04:27:02;5.23;;;4.00;;
1134;SDS011;556;53.550;10.048;2022-09-28T04:29:47;7.70;;;4.63;;
1134;SDS011;556;53.550;10.048;2022-09-28T04:32:15;7.03;;;6.43;;
1134;SDS011;556;53.550;10.048;2022-09-28T04:34:42;11.37;;;7.60;;
1134;SDS011;556;53.550;10.048;2022-09-28T04:37:10;5.47;;;5.07;;
1134;SDS011;556;53.550;10.048;2022-09-28T04:39:37;13.10;;;6.33;;
1134;SDS011;556;53.550;10.048;2022-09-28T04:42:07;7.70;;;5.07;;
1134;SDS011;556;53.550;10.048;2022-09-28T04:44:36;9.10;;;6.50;;
1134;SDS011;556;53.550;10.048;2022-09-28T04:47:07;9.30;;;8.43;;
1134;SDS011;556;53.550;10.048;2022-09-28T04:49:54;7.87;;;4.90;;
1134;SDS011;556;53.550;10.048;2022-09-28T04:52:29;9.60;;;5.50;;
1134;SDS011;556;53.550;10.048;2022-09-28T04:54:56;10.33;;;6.03;;
1134;SDS011;556;53.550;10.048;2022-09-28T04:57:26;23.07;;;7.47;;
1134;SDS011;556;53.550;10.048;2022-09-28T04:59:53;8.57;;;6.73;;
1134;SDS011;556;53.550;10.048;2022-09-28T05:02:20;9.23;;;8.00;;
1134;SDS011;556;53.550;10.048;2022-09-28T05:05:06;9.83;;;7.50;;
1134;SDS011;556;53.550;10.048;2022-09-28T05:07:55;8.27;;;5.40;;
1134;SDS011;556;53.550;10.048;2022-09-28T05:10:23;5.03;;;4.63;;
1134;SDS011;556;53.550;10.048;2022-09-28T05:12:53;5.90;;;4.67;;
1134;SDS011;556;53.550;10.048;2022-09-28T05:15:20;8.37;;;5.40;;
1134;SDS011;556;53.550;10.048;2022-09-28T05:17:47;8.87;;;6.33;;
1134;SDS011;556;53.550;10.048;2022-09-28T05:20:38;4.13;;;3.80;;
1134;SDS011;556;53.550;10.048;2022-09-28T05:23:08;10.50;;;8.10;;
1134;SDS011;556;53.550;10.048;2022-09-28T05:25:39;8.77;;;6.50;;
1134;SDS011;556;53.550;10.048;2022-09-28T05:28:24;11.00;;;6.50;;
1134;SDS011;556;53.550;10.048;2022-09-28T05:31:12;8.13;;;5.73;;
1134;SDS011;556;53.550;10.048;2022-09-28T05:34:08;8.53;;;5.03;;
1134;SDS011;556;53.550;10.048;2022-09-28T05:36:36;6.80;;;6.20;;
1134;SDS011;556;53.550;10.048;2022-09-28T05:39:04;8.67;;;5.80;;
1134;SDS011;556;53.550;10.048;2022-09-28T05:41:33;6.20;;;4.30;;
1134;SDS011;556;53.550;10.048;2022-09-28T05:44:01;10.67;;;5.83;;
1134;SDS011;556;53.550;10.048;2022-09-28T05:46:29;10.43;;;6.30;;
1134;SDS011;556;53.550;10.048;2022-09-28T05:48:59;6.27;;;4.60;;
1134;SDS011;556;53.550;10.048;2022-09-28T05:51:26;8.20;;;6.80;;
1134;SDS011;556;53.550;10.048;2022-09-28T05:53:54;13.57;;;4.97;;
1134;SDS011;556;53.550;10.048;2022-09-28T05:56:24;8.17;;;5.73;;
1134;SDS011;556;53.550;10.048;2022-09-28T05:58:51;4.30;;;3.70;;
1134;SDS011;556;53.550;10.048;2022-09-28T06:01:22;8.40;;;5.83;;
1134;SDS011;556;53.550;10.048;2022-09-28T06:03:49;6.13;;;3.07;;
1134;SDS011;556;53.550;10.048;2022-09-28T06:06:17;5.33;;;3.50;;
1134;SDS011;556;53.550;10.048;2022-09-28T06:08:46;5.53;;;4.40;;
1134;SDS011;556;53.550;10.048;2022-09-28T06:11:30;13.13;;;6.83;;
1134;SDS011;556;53.550;10.048;2022-09-28T06:13:59;15.00;;;7.77;;
1134;SDS011;556;53.550;10.048;2022-09-28T06:16:30;8.17;;;7.10;;
1134;SDS011;556;53.550;10.048;2022-09-28T06:18:57;12.43;;;5.87;;
1134;SDS011;556;53.550;10.048;2022-09-28T06:21:38;12.90;;;7.63;;
1134;SDS011;556;53.550;10.048;2022-09-28T06:24:06;10.40;;;6.67;;
1134;SDS011;556;53.550;10.048;2022-09-28T06:26:34;7.57;;;5.40;;
1134;SDS011;556;53.550;10.048;2022-09-28T06:29:03;9.20;;;6.10;;
1134;SDS011;556;53.550;10.048;2022-09-28T06:31:31;8.40;;;6.67;;
1134;SDS011;556;53.550;10.048;2022-09-28T06:33:58;6.77;;;5.60;;
1134;SDS011;556;53.550;10.048;2022-09-28T06:36:27;7.47;;;5.67;;
1134;SDS011;556;53.550;10.048;2022-09-28T06:38:55;12.17;;;5.00;;
1134;SDS011;556;53.550;10.048;2022-09-28T06:41:23;6.60;;;5.33;;
1134;SDS011;556;53.550;10.048;2022-09-28T06:43:50;12.17;;;6.90;;
1134;SDS011;556;53.550;10.048;2022-09-28T06:46:37;13.00;;;6.37;;
1134;SDS011;556;53.550;10.048;2022-09-28T06:49:24;14.30;;;8.33;;
1134;SDS011;556;53.550;10.048;2022-09-28T06:52:12;22.17;;;10.60;;
1134;SDS011;556;53.550;10.048;2022-09-28T06:55:03;7.83;;;6.07;;
1134;SDS011;556;53.550;10.048;2022-09-28T06:57:40;7.13;;;5.00;;
1134;SDS011;556;53.550;10.048;2022-09-28T07:00:08;9.07;;;6.27;;
1134;SDS011;556;53.550;10.048;2022-09-28T07:02:37;14.50;;;7.60;;
1134;SDS011;556;53.550;10.048;2022-09-28T07:05:05;5.40;;;4.30;;
1134;SDS011;556;53.550;10.048;2022-09-28T07:08:03;18.63;;;9.60;;
1134;SDS011;556;53.550;10.048;2022-09-28T07:10:41;12.23;;;8.57;;
1134;SDS011;556;53.550;10.048;2022-09-28T07:13:22;16.63;;;8.67;;
1134;SDS011;556;53.550;10.048;2022-09-28T07:15:53;25.20;;;11.27;;
1134;SDS011;556;53.550;10.048;2022-09-28T07:18:22;14.90;;;10.50;;
1134;SDS011;556;53.550;10.048;2022-09-28T07:20:50;14.33;;;9.10;;
1134;SDS011;556;53.550;10.048;2022-09-28T07:23:18;9.03;;;4.10;;
1134;SDS011;556;53.550;10.048;2022-09-28T07:26:05;11.53;;;6.97;;
1134;SDS011;556;53.550;10.048;2022-09-28T07:28:43;13.57;;;6.00;;
1134;SDS011;556;53.550;10.048;2022-09-28T07:31:48;14.43;;;7.07;;
1134;SDS011;556;53.550;10.048;2022-09-28T07:34:34;10.50;;;7.50;;
1134;SDS011;556;53.550;10.048;2022-09-28T07:37:13;8.43;;;7.43;;
1134;SDS011;556;53.550;10.048;2022-09-28T07:39:43;15.67;;;7.07;;
1134;SDS011;556;53.550;10.048;2022-09-28T07:42:30;12.80;;;7.47;;
1134;SDS011;556;53.550;10.048;2022-09-28T07:44:57;12.67;;;8.37;;
1134;SDS011;556;53.550;10.048;2022-09-28T07:47:25;15.27;;;8.33;;
1134;SDS011;556;53.550;10.048;2022-09-28T07:50:21;11.07;;;6.47;;
1134;SDS011;556;53.550;10.048;2022-09-28T07:53:07;14.00;;;6.07;;
1134;SDS011;556;53.550;10.048;2022-09-28T07:55:58;8.37;;;5.73;;
1134;SDS011;556;53.550;10.048;2022-09-28T07:58:39;10.00;;;6.43;;
1134;SDS011;556;53.550;10.048;2022-09-28T08:01:30;15.97;;;7.63;;
1134;SDS011;556;53.550;10.048;2022-09-28T08:03:58;11.60;;;5.97;;
1134;SDS011;556;53.550;10.048;2022-09-28T08:06:27;12.37;;;7.20;;
1134;SDS011;556;53.550;10.048;2022-09-28T08:08:56;13.97;;;8.00;;
1134;SDS011;556;53.550;10.048;2022-09-28T08:11:46;13.37;;;6.37;;
1134;SDS011;556;53.550;10.048;2022-09-28T08:14:32;5.63;;;5.13;;
1134;SDS011;556;53.550;10.048;2022-09-28T08:17:18;9.30;;;6.07;;
1134;SDS011;556;53.550;10.048;2022-09-28T08:19:49;9.43;;;5.37;;
1134;SDS011;556;53.550;10.048;2022-09-28T08:22:35;6.57;;;3.80;;
1134;SDS011;556;53.550;10.048;2022-09-28T08:25:04;8.10;;;5.60;;
1134;SDS011;556;53.550;10.048;2022-09-28T08:27:32;15.40;;;10.07;;
1134;SDS011;556;53.550;10.048;2022-09-28T08:30:00;8.60;;;7.70;;
1134;SDS011;556;53.550;10.048;2022-09-28T08:32:38;8.83;;;5.77;;
1134;SDS011;556;53.550;10.048;2022-09-28T08:35:25;8.80;;;7.90;;
1134;SDS011;556;53.550;10.048;2022-09-28T08:38:29;23.03;;;7.87;;
1134;SDS011;556;53.550;10.048;2022-09-28T08:41:13;9.33;;;6.27;;
1134;SDS011;556;53.550;10.048;2022-09-28T08:47:28;13.17;;;5.90;;
1134;SDS011;556;53.550;10.048;2022-09-28T08:50:30;6.97;;;5.70;;
1134;SDS011;556;53.550;10.048;2022-09-28T08:53:09;8.53;;;7.53;;
1134;SDS011;556;53.550;10.048;2022-09-28T08:55:59;13.83;;;8.63;;
1134;SDS011;556;53.550;10.048;2022-09-28T08:58:31;11.23;;;7.87;;
1134;SDS011;556;53.550;10.048;2022-09-28T09:01:01;11.73;;;6.77;;
1134;SDS011;556;53.550;10.048;2022-09-28T09:03:34;6.60;;;5.90;;
1134;SDS011;556;53.550;10.048;2022-09-28T09:06:32;10.80;;;9.40;;
1134;SDS011;556;53.550;10.048;2022-09-28T09:09:30;12.10;;;8.37;;
1134;SDS011;556;53.550;10.048;2022-09-28T09:12:08;8.40;;;6.23;;
1134;SDS011;556;53.550;10.048;2022-09-28T09:14:52;8.27;;;5.97;;
1134;SDS011;556;53.550;10.048;2022-09-28T09:17:45;12.57;;;7.93;;
1134;SDS011;556;53.550;10.048;2022-09-28T09:20:40;6.37;;;5.80;;
1134;SDS011;556;53.550;10.048;2022-09-28T09:23:18;6.53;;;5.63;;
1134;SDS011;556;53.550;10.048;2022-09-28T09:25:53;9.77;;;6.50;;
1134;SDS011;556;53.550;10.048;2022-09-28T09:28:40;9.70;;;6.93;;
1134;SDS011;556;53.550;10.048;2022-09-28T09:31:34;6.63;;;6.03;;
1134;SDS011;556;53.550;10.048;2022-09-28T09:34:13;13.70;;;9.37;;
1134;SDS011;556;53.550;10.048;2022-09-28T09:37:12;14.47;;;8.93;;
1134;SDS011;556;53.550;10.048;2022-09-28T09:40:27;14.80;;;9.07;;
1134;SDS011;556;53.550;10.048;2022-09-28T09:43:45;13.93;;;8.83;;
1134;SDS011;556;53.550;10.048;2022-09-28T09:46:51;14.33;;;7.80;;
1134;SDS011;556;53.550;10.048;2022-09-28T09:49:35;17.37;;;10.80;;
1134;SDS011;556;53.550;10.048;2022-09-28T09:52:09;18.20;;;11.03;;
1134;SDS011;556;53.550;10.048;2022-09-28T09:54:41;9.50;;;7.20;;
1134;SDS011;556;53.550;10.048;2022-09-28T09:57:29;10.30;;;7.67;;
1134;SDS011;556;53.550;10.048;2022-09-28T10:00:13;12.50;;;7.57;;
1134;SDS011;556;53.550;10.048;2022-09-28T10:02:52;10.37;;;6.80;;
1134;SDS011;556;53.550;10.048;2022-09-28T10:05:33;17.37;;;9.17;;
1134;SDS011;556;53.550;10.048;2022-09-28T10:08:03;12.30;;;7.77;;
1134;SDS011;556;53.550;10.048;2022-09-28T10:10:37;14.80;;;9.20;;
1134;SDS011;556;53.550;10.048;2022-09-28T10:13:15;14.20;;;9.37;;
1134;SDS011;556;53.550;10.048;2022-09-28T10:15:45;12.00;;;5.93;;
1134;SDS011;556;53.550;10.048;2022-09-28T10:18:22;9.90;;;6.60;;
1134;SDS011;556;53.550;10.048;2022-09-28T10:21:10;10.17;;;5.57;;
1134;SDS011;556;53.550;10.048;2022-09-28T10:23:59;8.60;;;6.33;;
1134;SDS011;556;53.550;10.048;2022-09-28T10:26:31;8.43;;;5.30;;
1134;SDS011;556;53.550;10.048;2022-09-28T10:29:02;4.47;;;4.10;;
1134;SDS011;556;53.550;10.048;2022-09-28T10:31:37;8.90;;;5.97;;
1134;SDS011;556;53.550;10.048;2022-09-28T10:34:11;5.57;;;4.93;;
1134;SDS011;556;53.550;10.048;2022-09-28T10:36:43;5.50;;;4.97;;
1134;SDS011;556;53.550;10.048;2022-09-28T10:39:22;9.47;;;5.97;;
1134;SDS011;556;53.550;10.048;2022-09-28T10:41:53;5.10;;;4.43;;
1134;SDS011;556;53.550;10.048;2022-09-28T10:44:25;8.13;;;4.17;;
1134;SDS011;556;53.550;10.048;2022-09-28T10:47:02;8.73;;;6.13;;
1134;SDS011;556;53.550;10.048;2022-09-28T10:49:37;4.07;;;3.73;;
1134;SDS011;556;53.550;10.048;2022-09-28T10:52:09;6.77;;;4.40;;
1134;SDS011;556;53.550;10.048;2022-09-28T10:54:57;5.73;;;4.90;;
1134;SDS011;556;53.550;10.048;2022-09-28T10:57:26;6.63;;;4.63;;
1134;SDS011;556;53.550;10.048;2022-09-28T10:59:59;7.80;;;5.80;;
1134;SDS011;556;53.550;10.048;2022-09-28T11:02:38;11.17;;;5.40;;
1134;SDS011;556;53.550;10.048;2022-09-28T11:05:20;6.10;;;4.17;;
1134;SDS011;556;53.550;10.048;2022-09-28T11:07:54;8.00;;;5.40;;
1134;SDS011;556;53.550;10.048;2022-09-28T11:10:29;6.20;;;5.67;;
1134;SDS011;556;53.550;10.048;2022-09-28T11:13:10;4.73;;;3.60;;
1134;SDS011;556;53.550;10.048;2022-09-28T11:15:41;5.70;;;4.23;;
1134;SDS011;556;53.550;10.048;2022-09-28T11:18:18;6.33;;;5.07;;
1134;SDS011;556;53.550;10.048;2022-09-28T11:20:51;3.50;;;3.20;;
1134;SDS011;556;53.550;10.048;2022-09-28T11:23:19;4.07;;;3.67;;
1134;SDS011;556;53.550;10.048;2022-09-28T11:25:54;6.67;;;4.47;;
1134;SDS011;556;53.550;10.048;2022-09-28T11:28:26;6.70;;;4.57;;
1134;SDS011;556;53.550;10.048;2022-09-28T11:30:58;4.63;;;3.63;;
1134;SDS011;556;53.550;10.048;2022-09-28T11:33:34;4.17;;;3.90;;
1134;SDS011;556;53.550;10.048;2022-09-28T11:36:26;5.27;;;3.80;;
1134;SDS011;556;53.550;10.048;2022-09-28T11:39:07;5.07;;;4.57;;
1134;SDS011;556;53.550;10.048;2022-09-28T11:41:53;6.50;;;4.17;;
1134;SDS011;556;53.550;10.048;2022-09-28T11:44:40;3.83;;;3.43;;
1134;SDS011;556;53.550;10.048;2022-09-28T11:47:49;4.60;;;2.87;;
1134;SDS011;556;53.550;10.048;2022-09-28T11:50:29;3.57;;;3.27;;
1134;SDS011;556;53.550;10.048;2022-09-28T11:53:14;5.20;;;3.90;;
1134;SDS011;556;53.550;10.048;2022-09-28T11:55:49;5.00;;;4.53;;
1134;SDS011;556;53.550;10.048;2022-09-28T11:58:22;9.30;;;6.40;;
1134;SDS011;556;53.550;10.048;2022-09-28T12:00:55;6.30;;;4.67;;
1134;SDS011;556;53.550;10.048;2022-09-28T12:03:41;3.43;;;3.17;;
1134;SDS011;556;53.550;10.048;2022-09-28T12:06:15;3.63;;;3.30;;
1134;SDS011;556;53.550;10.048;2022-09-28T12:08:45;2.97;;;2.77;;
1134;SDS011;556;53.550;10.048;2022-09-28T12:11:43;1.80;;;1.70;;
1134;SDS011;556;53.550;10.048;2022-09-28T12:14:22;3.17;;;2.93;;
1134;SDS011;556;53.550;10.048;2022-09-28T12:16:53;6.83;;;3.53;;
1134;SDS011;556;53.550;10.048;2022-09-28T12:19:26;4.10;;;3.70;;
1134;SDS011;556;53.550;10.048;2022-09-28T12:21:58;4.37;;;3.20;;
1134;SDS011;556;53.550;10.048;2022-09-28T12:24:29;1.73;;;1.63;;
1134;SDS011;556;53.550;10.048;2022-09-28T12:27:02;3.63;;;3.33;;
1134;SDS011;556;53.550;10.048;2022-09-28T12:29:34;3.20;;;2.87;;
1134;SDS011;556;53.550;10.048;2022-09-28T12:32:09;10.20;;;2.53;;
1134;SDS011;556;53.550;10.048;2022-09-28T12:34:43;8.63;;;3.37;;
1134;SDS011;556;53.550;10.048;2022-09-28T12:40:18;3.90;;;2.33;;
1134;SDS011;556;53.550;10.048;2022-09-28T12:43:00;3.33;;;2.47;;
1134;SDS011;556;53.550;10.048;2022-09-28T12:48:39;2.97;;;2.70;;
1134;SDS011;556;53.550;10.048;2022-09-28T12:51:17;2.27;;;2.10;;
1134;SDS011;556;53.550;10.048;2022-09-28T12:54:00;2.43;;;2.23;;
1134;SDS011;556;53.550;10.048;2022-09-28T12:56:38;3.00;;;2.70;;
1134;SDS011;556;53.550;10.048;2022-09-28T12:59:12;1.87;;;1.67;;
1134;SDS011;556;53.550;10.048;2022-09-28T13:02:00;3.03;;;2.20;;
1134;SDS011;556;53.550;10.048;2022-09-28T13:07:43;5.73;;;2.17;;
1134;SDS011;556;53.550;10.048;2022-09-28T13:10:20;4.93;;;2.43;;
1134;SDS011;556;53.550;10.048;2022-09-28T13:13:00;2.33;;;1.80;;
1134;SDS011;556;53.550;10.048;2022-09-28T13:15:41;2.63;;;2.43;;
1134;SDS011;556;53.550;10.048;2022-09-28T13:18:16;2.47;;;1.80;;
1134;SDS011;556;53.550;10.048;2022-09-28T13:20:49;1.80;;;1.70;;
1134;SDS011;556;53.550;10.048;2022-09-28T13:23:34;3.23;;;1.40;;
1134;SDS011;556;53.550;10.048;2022-09-28T13:26:07;2.50;;;2.30;;
1134;SDS011;556;53.550;10.048;2022-09-28T13:28:42;1.93;;;1.83;;
1134;SDS011;556;53.550;10.048;2022-09-28T13:31:15;3.00;;;1.90;;
1134;SDS011;556;53.550;10.048;2022-09-28T13:33:46;5.10;;;2.33;;
1134;SDS011;556;53.550;10.048;2022-09-28T13:36:34;1.60;;;1.50;;
1134;SDS011;556;53.550;10.048;2022-09-28T13:39:13;1.93;;;1.83;;
1134;SDS011;556;53.550;10.048;2022-09-28T13:42:04;3.90;;;3.60;;
1134;SDS011;556;53.550;10.048;2022-09-28T13:44:51;8.23;;;7.83;;
1134;SDS011;556;53.550;10.048;2022-09-28T13:47:39;12.57;;;11.83;;
1134;SDS011;556;53.550;10.048;2022-09-28T13:50:25;13.50;;;12.90;;
1134;SDS011;556;53.550;10.048;2022-09-28T13:53:01;13.70;;;13.00;;
1134;SDS011;556;53.550;10.048;2022-09-28T13:55:39;13.47;;;13.07;;
1134;SDS011;556;53.550;10.048;2022-09-28T13:58:19;14.37;;;13.87;;
1134;SDS011;556;53.550;10.048;2022-09-28T14:00:52;12.93;;;12.53;;
1134;SDS011;556;53.550;10.048;2022-09-28T14:03:25;13.83;;;13.23;;
1134;SDS011;556;53.550;10.048;2022-09-28T14:06:07;14.70;;;14.20;;
1134;SDS011;556;53.550;10.048;2022-09-28T14:14:24;14.13;;;13.73;;
1134;SDS011;556;53.550;10.048;2022-09-28T14:16:59;14.23;;;13.73;;
1134;SDS011;556;53.550;10.048;2022-09-28T14:20:21;15.93;;;14.43;;
1134;SDS011;556;53.550;10.048;2022-09-28T14:22:56;14.20;;;13.70;;
1134;SDS011;556;53.550;10.048;2022-09-28T14:26:02;14.27;;;13.80;;
1134;SDS011;556;53.550;10.048;2022-09-28T14:28:49;13.60;;;13.20;;
1134;SDS011;556;53.550;10.048;2022-09-28T14:31:26;13.73;;;13.33;;
1134;SDS011;556;53.550;10.048;2022-09-28T14:33:55;14.73;;;14.23;;
1134;SDS011;556;53.550;10.048;2022-09-28T14:36:25;15.27;;;14.77;;
1134;SDS011;556;53.550;10.048;2022-09-28T14:39:17;15.87;;;15.00;;
1134;SDS011;556;53.550;10.048;2022-09-28T14:42:09;15.97;;;15.47;;
1134;SDS011;556;53.550;10.048;2022-09-28T14:48:04;16.97;;;16.27;;
1134;SDS011;556;53.550;10.048;2022-09-28T14:50:40;16.37;;;15.77;;
1134;SDS011;556;53.550;10.048;2022-09-28T14:53:09;16.10;;;15.50;;
1134;SDS011;556;53.550;10.048;2022-09-28T14:55:39;16.40;;;15.90;;
1134;SDS011;556;53.550;10.048;2022-09-28T14:58:16;17.30;;;16.07;;
1134;SDS011;556;53.550;10.048;2022-09-28T15:00:49;16.17;;;15.57;;
1134;SDS011;556;53.550;10.048;2022-09-28T15:03:23;16.90;;;16.17;;
1134;SDS011;556;53.550;10.048;2022-09-28T15:05:52;15.80;;;15.30;;
1134;SDS011;556;53.550;10.048;2022-09-28T15:08:19;15.93;;;15.40;;
1134;SDS011;556;53.550;10.048;2022-09-28T15:10:47;16.37;;;15.67;;
1134;SDS011;556;53.550;10.048;2022-09-28T15:13:17;15.40;;;14.93;;
1134;SDS011;556;53.550;10.048;2022-09-28T15:15:49;17.23;;;16.13;;
1134;SDS011;556;53.550;10.048;2022-09-28T15:21:29;15.87;;;15.37;;
1134;SDS011;556;53.550;10.048;2022-09-28T15:23:58;16.47;;;15.97;;
1134;SDS011;556;53.550;10.048;2022-09-28T15:26:27;16.27;;;15.60;;
1134;SDS011;556;53.550;10.048;2022-09-28T15:28:56;15.93;;;15.43;;
1134;SDS011;556;53.550;10.048;2022-09-28T15:31:25;16.70;;;16.00;;
1134;SDS011;556;53.550;10.048;2022-09-28T15:33:55;16.77;;;16.00;;
1134;SDS011;556;53.550;10.048;2022-09-28T15:36:40;16.10;;;15.60;;
1134;SDS011;556;53.550;10.048;2022-09-28T15:39:11;16.37;;;15.87;;
1134;SDS011;556;53.550;10.048;2022-09-28T15:41:40;16.70;;;15.90;;
1134;SDS011;556;53.550;10.048;2022-09-28T15:47:04;17.03;;;16.17;;
1134;SDS011;556;53.550;10.048;2022-09-28T15:49:34;16.83;;;16.03;;
1134;SDS011;556;53.550;10.048;2022-09-28T15:52:05;17.07;;;16.10;;
1134;SDS011;556;53.550;10.048;2022-09-28T15:54:46;16.13;;;15.60;;
1134;SDS011;556;53.550;10.048;2022-09-28T15:57:26;16.90;;;16.00;;
1134;SDS011;556;53.550;10.048;2022-09-28T15:59:57;17.60;;;16.80;;
1134;SDS011;556;53.550;10.048;2022-09-28T16:02:27;17.60;;;16.30;;
1134;SDS011;556;53.550;10.048;2022-09-28T16:04:55;17.37;;;16.67;;
1134;SDS011;556;53.550;10.048;2022-09-28T16:07:29;16.70;;;16.00;;
1134;SDS011;556;53.550;10.048;2022-09-28T16:10:08;16.07;;;15.57;;
1134;SDS011;556;53.550;10.048;2022-09-28T16:13:05;17.07;;;16.47;;
1134;SDS011;556;53.550;10.048;2022-09-28T16:15:42;17.00;;;16.30;;
1134;SDS011;556;53.550;10.048;2022-09-28T16:18:15;17.53;;;16.80;;
1134;SDS011;556;53.550;10.048;2022-09-28T16:20:46;17.03;;;16.53;;
1134;SDS011;556;53.550;10.048;2022-09-28T16:23:18;16.83;;;16.13;;
1134;SDS011;556;53.550;10.048;2022-09-28T16:25:49;17.23;;;16.53;;
1134;SDS011;556;53.550;10.048;2022-09-28T16:28:23;17.20;;;16.60;;